Time;durP1;ratioP1;P1;durP2;ratioP2;P2;SDS_P1;SDS_P2;PMS_P1;PMS_P2;Temp;Humidity;BMP_temperature;BMP_pressure;BME280_temperature;BME280_humidity;BME280_pressure;Samples;Min_cycle;Max_cycle;Signal;HPM_P1;HPM_P2
2021/03/02 00:02:23;;;;;;;10.35;5.07;;;;;;;;;;5032472;28;20108;-86
2021/03/02 00:04:48;;;;;;;10.52;5.35;;;;;;;;;;5032537;28;20029;-87
2021/03/02 00:07:17;;;;;;;9.25;4.50;;;;;;;;;;5032927;28;20055;-87
2021/03/02 00:09:43;;;;;;;17.30;6.25;;;;;;;;;;5033008;28;20358;-87
2021/03/02 00:12:09;;;;;;;10.52;5.82;;;;;;;;;;5031518;28;20020;-86
2021/03/02 00:14:43;;;;;;;9.02;4.95;;;;;;;;;;5020431;28;20026;-87
2021/03/02 00:17:13;;;;;;;11.77;5.80;;;;;;;;;;5031987;28;20013;-87
2021/03/02 00:19:47;;;;;;;10.40;4.93;;;;;;;;;;5032985;28;20074;-86
2021/03/02 00:22:27;;;;;;;10.43;5.15;;;;;;;;;;5030299;28;20045;-87
2021/03/02 00:24:58;;;;;;;13.52;6.40;;;;;;;;;;5042603;28;20029;-87
2021/03/02 00:27:26;;;;;;;9.02;4.55;;;;;;;;;;5031998;28;20068;-87
2021/03/02 00:29:52;;;;;;;11.05;4.43;;;;;;;;;;5019967;28;20025;-87
2021/03/02 00:32:17;;;;;;;9.75;4.85;;;;;;;;;;5048507;28;20029;-87
2021/03/02 00:34:43;;;;;;;9.45;4.10;;;;;;;;;;5054471;28;20028;-86
2021/03/02 00:37:08;;;;;;;10.07;4.60;;;;;;;;;;5033815;28;20103;-88
2021/03/02 00:39:34;;;;;;;12.65;4.40;;;;;;;;;;5051444;28;20027;-87
2021/03/02 00:41:59;;;;;;;13.15;4.40;;;;;;;;;;5034832;28;20031;-87
2021/03/02 00:44:24;;;;;;;10.70;4.40;;;;;;;;;;5054625;28;20025;-87
2021/03/02 00:46:49;;;;;;;8.82;4.22;;;;;;;;;;5035570;28;20112;-87
2021/03/02 00:49:15;;;;;;;8.38;4.35;;;;;;;;;;5054353;28;20025;-87
2021/03/02 00:51:40;;;;;;;10.50;4.15;;;;;;;;;;5030273;28;20056;-87
2021/03/02 00:54:05;;;;;;;8.73;4.53;;;;;;;;;;5035048;28;20443;-87
2021/03/02 00:56:30;;;;;;;8.40;4.25;;;;;;;;;;5035904;28;20079;-86
2021/03/02 00:58:55;;;;;;;9.93;4.10;;;;;;;;;;5036309;28;20560;-87
2021/03/02 01:01:21;;;;;;;6.45;3.92;;;;;;;;;;5053095;28;20067;-87
2021/03/02 01:03:46;;;;;;;8.65;4.25;;;;;;;;;;5030713;28;20119;-88
2021/03/02 01:06:12;;;;;;;6.88;3.45;;;;;;;;;;5054203;28;20101;-87
2021/03/02 01:08:38;;;;;;;8.18;3.63;;;;;;;;;;5052534;28;20508;-86
2021/03/02 01:11:06;;;;;;;10.88;3.53;;;;;;;;;;5035558;28;20096;-86
2021/03/02 01:13:31;;;;;;;9.25;3.72;;;;;;;;;;5035424;28;20021;-86
2021/03/02 01:15:56;;;;;;;9.80;4.10;;;;;;;;;;5035597;28;20024;-87
2021/03/02 01:18:21;;;;;;;9.00;4.57;;;;;;;;;;5034846;28;20430;-87
2021/03/02 01:20:47;;;;;;;9.40;4.30;;;;;;;;;;5035858;28;20083;-87
2021/03/02 01:23:12;;;;;;;8.65;4.43;;;;;;;;;;5035903;28;20025;-88
2021/03/02 01:25:37;;;;;;;7.45;4.10;;;;;;;;;;5035607;28;20021;-87
2021/03/02 01:28:02;;;;;;;7.30;3.50;;;;;;;;;;5053076;28;20037;-87
2021/03/02 01:30:28;;;;;;;10.60;4.70;;;;;;;;;;5036649;28;20036;-87
2021/03/02 01:32:53;;;;;;;7.97;4.32;;;;;;;;;;5034893;28;20818;-87
2021/03/02 01:35:18;;;;;;;9.05;4.65;;;;;;;;;;5031176;28;20060;-87
2021/03/02 01:37:44;;;;;;;9.90;4.20;;;;;;;;;;5036784;28;20469;-87
2021/03/02 01:40:09;;;;;;;7.90;4.22;;;;;;;;;;5054508;28;20025;-87
2021/03/02 01:42:34;;;;;;;8.30;4.45;;;;;;;;;;5043833;28;20025;-87
2021/03/02 01:45:00;;;;;;;12.30;4.25;;;;;;;;;;5046750;28;20024;-86
2021/03/02 01:47:25;;;;;;;9.02;4.13;;;;;;;;;;5078101;28;20098;-87
2021/03/02 01:49:50;;;;;;;15.32;4.63;;;;;;;;;;5053199;28;20018;-87
2021/03/02 01:52:15;;;;;;;8.70;4.15;;;;;;;;;;5058239;28;20041;-86
2021/03/02 01:54:41;;;;;;;9.23;4.50;;;;;;;;;;5077805;28;20013;-87
2021/03/02 01:57:06;;;;;;;10.15;4.35;;;;;;;;;;5060867;28;20036;-86
2021/03/02 01:59:31;;;;;;;7.55;4.15;;;;;;;;;;5078300;28;20017;-87
2021/03/02 02:01:59;;;;;;;6.68;3.55;;;;;;;;;;5059731;28;20028;-86
2021/03/02 02:04:41;;;;;;;12.45;4.00;;;;;;;;;;5059896;28;20035;-86
2021/03/02 02:07:10;;;;;;;10.80;3.53;;;;;;;;;;5076237;28;20093;-87
2021/03/02 02:09:38;;;;;;;10.60;3.97;;;;;;;;;;5043634;28;20027;-87
2021/03/02 02:12:10;;;;;;;6.53;3.97;;;;;;;;;;5035469;28;20478;-87
2021/03/02 02:14:44;;;;;;;7.47;4.00;;;;;;;;;;5051628;28;20133;-87
2021/03/02 02:17:18;;;;;;;7.72;4.03;;;;;;;;;;5040592;28;20092;-87
2021/03/02 02:19:48;;;;;;;7.95;4.22;;;;;;;;;;5034354;28;20025;-87
2021/03/02 02:22:14;;;;;;;8.95;4.10;;;;;;;;;;5033007;28;20087;-87
2021/03/02 02:24:57;;;;;;;7.45;3.97;;;;;;;;;;5049802;28;20025;-87
2021/03/02 02:27:23;;;;;;;8.77;4.68;;;;;;;;;;5033930;28;20103;-88
2021/03/02 02:29:48;;;;;;;10.13;4.53;;;;;;;;;;5030739;28;20115;-87
2021/03/02 02:32:14;;;;;;;6.72;3.63;;;;;;;;;;5035141;28;20029;-87
2021/03/02 02:34:41;;;;;;;10.25;4.72;;;;;;;;;;5052394;28;20017;-87
2021/03/02 02:37:06;;;;;;;8.18;3.70;;;;;;;;;;5037860;28;20075;-87
2021/03/02 02:39:33;;;;;;;9.27;4.68;;;;;;;;;;5036650;28;20025;-87
2021/03/02 02:41:59;;;;;;;12.10;4.68;;;;;;;;;;5052060;28;20388;-87
2021/03/02 02:44:25;;;;;;;11.25;4.63;;;;;;;;;;5034849;28;20041;-87
2021/03/02 02:46:51;;;;;;;12.52;4.93;;;;;;;;;;5034725;28;20167;-87
2021/03/02 02:49:17;;;;;;;11.25;4.32;;;;;;;;;;5032251;28;20037;-87
2021/03/02 02:51:42;;;;;;;10.07;4.75;;;;;;;;;;5031463;28;20087;-87
2021/03/02 02:54:09;;;;;;;10.32;4.47;;;;;;;;;;5031514;28;20021;-87
2021/03/02 02:56:35;;;;;;;10.15;5.05;;;;;;;;;;5029773;28;20476;-87
2021/03/02 02:59:10;;;;;;;9.02;4.40;;;;;;;;;;5034263;28;20084;-87
2021/03/02 03:01:40;;;;;;;9.88;4.50;;;;;;;;;;5034329;28;20366;-87
2021/03/02 03:04:17;;;;;;;12.50;5.80;;;;;;;;;;5032993;28;20648;-88
2021/03/02 03:06:48;;;;;;;9.30;5.15;;;;;;;;;;5033370;28;20025;-87
2021/03/02 03:09:19;;;;;;;8.10;4.10;;;;;;;;;;5051239;28;20111;-87
2021/03/02 03:11:49;;;;;;;12.45;4.75;;;;;;;;;;5033655;28;20021;-87
2021/03/02 03:14:17;;;;;;;;;;;;;;;;;;5034394;28;20013;-87
2021/03/02 03:16:48;;;;;;;7.95;4.30;;;;;;;;;;5034344;28;20364;-87
2021/03/02 03:19:16;;;;;;;11.63;5.20;;;;;;;;;;5052315;28;20024;-87
2021/03/02 03:21:48;;;;;;;11.43;4.18;;;;;;;;;;5051967;28;20029;-87
2021/03/02 03:24:20;;;;;;;8.43;4.20;;;;;;;;;;5033935;28;20033;-87
2021/03/02 03:26:47;;;;;;;9.95;5.05;;;;;;;;;;5050693;28;20021;-87
2021/03/02 03:29:22;;;;;;;8.23;4.53;;;;;;;;;;5034941;28;20013;-86
2021/03/02 03:31:48;;;;;;;10.18;4.75;;;;;;;;;;5033224;28;20112;-87
2021/03/02 03:34:13;;;;;;;12.43;4.50;;;;;;;;;;5028931;28;20071;-87
2021/03/02 03:36:46;;;;;;;12.52;4.35;;;;;;;;;;5030668;28;20514;-86
2021/03/02 03:39:15;;;;;;;12.75;4.90;;;;;;;;;;5050293;28;20495;-87
2021/03/02 03:41:40;;;;;;;7.78;4.07;;;;;;;;;;5032373;28;20489;-87
2021/03/02 03:44:06;;;;;;;8.45;4.50;;;;;;;;;;5049668;28;20019;-87
2021/03/02 03:46:31;;;;;;;12.85;4.72;;;;;;;;;;5050897;28;20059;-87
2021/03/02 03:48:56;;;;;;;10.73;4.38;;;;;;;;;;5032821;28;20021;-86
2021/03/02 03:51:29;;;;;;;11.68;4.40;;;;;;;;;;5021606;28;20017;-87
2021/03/02 03:53:58;;;;;;;8.68;4.53;;;;;;;;;;5048948;28;20579;-87
2021/03/02 03:56:49;;;;;;;7.93;4.07;;;;;;;;;;5033136;28;20095;-87
2021/03/02 03:59:18;;;;;;;10.18;4.72;;;;;;;;;;5029678;28;20021;-87
2021/03/02 04:01:43;;;;;;;6.22;3.72;;;;;;;;;;5042923;28;20025;-87
2021/03/02 04:04:09;;;;;;;9.15;4.53;;;;;;;;;;5048772;28;20023;-87
2021/03/02 04:06:34;;;;;;;8.88;4.60;;;;;;;;;;5032226;28;20511;-87
2021/03/02 04:09:00;;;;;;;9.60;4.30;;;;;;;;;;5031706;28;20035;-86
2021/03/02 04:11:25;;;;;;;8.15;4.35;;;;;;;;;;5031848;28;20025;-87
2021/03/02 04:13:50;;;;;;;9.60;3.95;;;;;;;;;;5030098;28;20040;-86
2021/03/02 04:16:16;;;;;;;8.70;4.40;;;;;;;;;;5048803;28;20017;-87
2021/03/02 04:18:41;;;;;;;11.93;4.22;;;;;;;;;;5030463;28;20107;-86
2021/03/02 04:21:06;;;;;;;17.92;4.35;;;;;;;;;;5049508;28;20116;-87
2021/03/02 04:23:31;;;;;;;9.25;4.82;;;;;;;;;;5031453;28;20384;-87
2021/03/02 04:25:57;;;;;;;8.25;4.53;;;;;;;;;;5031439;28;20365;-87
2021/03/02 04:28:22;;;;;;;7.55;4.40;;;;;;;;;;5050067;28;20051;-87
2021/03/02 04:30:47;;;;;;;7.65;3.60;;;;;;;;;;5050546;28;20017;-87
2021/03/02 04:33:12;;;;;;;6.20;3.45;;;;;;;;;;5031587;28;20145;-86
2021/03/02 04:35:37;;;;;;;8.45;4.13;;;;;;;;;;5034000;28;20022;-87
2021/03/02 04:38:03;;;;;;;8.63;4.40;;;;;;;;;;5036945;28;20020;-87
2021/03/02 04:40:28;;;;;;;10.32;4.55;;;;;;;;;;5032692;28;20025;-87
2021/03/02 04:42:53;;;;;;;9.38;3.83;;;;;;;;;;5034543;28;20508;-87
2021/03/02 04:45:19;;;;;;;9.27;4.55;;;;;;;;;;5034135;28;20097;-86
2021/03/02 04:47:45;;;;;;;6.78;3.63;;;;;;;;;;5055261;28;20021;-87
2021/03/02 04:50:13;;;;;;;9.35;4.78;;;;;;;;;;5034907;28;20396;-87
2021/03/02 04:52:39;;;;;;;7.47;4.03;;;;;;;;;;5029957;28;20546;-87
2021/03/02 04:55:04;;;;;;;8.25;4.60;;;;;;;;;;5023933;28;20021;-87
2021/03/02 04:57:30;;;;;;;11.32;4.75;;;;;;;;;;5049299;28;20036;-86
2021/03/02 04:59:55;;;;;;;10.40;4.15;;;;;;;;;;5030681;28;20428;-87
2021/03/02 05:02:20;;;;;;;10.32;4.75;;;;;;;;;;5049006;28;20052;-87
2021/03/02 05:04:45;;;;;;;10.85;4.43;;;;;;;;;;5031193;28;20059;-87
2021/03/02 05:07:11;;;;;;;11.55;4.95;;;;;;;;;;5031116;28;20033;-87
2021/03/02 05:09:36;;;;;;;12.82;4.60;;;;;;;;;;5030496;28;20037;-87
2021/03/02 05:12:01;;;;;;;10.25;4.25;;;;;;;;;;5031651;28;20017;-87
2021/03/02 05:14:26;;;;;;;8.07;4.38;;;;;;;;;;5031065;28;20056;-87
2021/03/02 05:16:52;;;;;;;10.60;4.70;;;;;;;;;;5030910;28;20017;-87
2021/03/02 05:19:17;;;;;;;7.95;4.72;;;;;;;;;;5027620;28;20020;-87
2021/03/02 05:21:42;;;;;;;8.77;3.97;;;;;;;;;;5030488;28;20056;-87
2021/03/02 05:24:08;;;;;;;8.48;4.20;;;;;;;;;;5049058;28;20013;-87
2021/03/02 05:26:33;;;;;;;7.50;4.20;;;;;;;;;;5029603;28;20028;-87
2021/03/02 05:28:58;;;;;;;8.05;4.10;;;;;;;;;;5035201;28;20477;-86
2021/03/02 05:31:24;;;;;;;9.93;3.63;;;;;;;;;;5035263;28;20427;-86
2021/03/02 05:33:49;;;;;;;10.90;4.45;;;;;;;;;;5051343;28;20128;-87
2021/03/02 05:36:14;;;;;;;15.95;4.57;;;;;;;;;;5053307;28;20370;-88
2021/03/02 05:38:40;;;;;;;9.90;4.75;;;;;;;;;;5035416;28;20021;-87
2021/03/02 05:41:09;;;;;;;9.82;4.90;;;;;;;;;;5053310;28;20476;-87
2021/03/02 05:43:38;;;;;;;9.55;4.95;;;;;;;;;;5052635;28;20511;-87
2021/03/02 05:46:03;;;;;;;9.48;4.85;;;;;;;;;;5034281;28;20028;-86
2021/03/02 05:48:32;;;;;;;10.00;5.00;;;;;;;;;;5052877;28;20025;-87
2021/03/02 05:51:00;;;;;;;16.23;5.10;;;;;;;;;;5052975;28;20040;-87
2021/03/02 05:53:25;;;;;;;16.50;6.22;;;;;;;;;;5035839;28;20107;-87
2021/03/02 05:55:53;;;;;;;11.35;5.45;;;;;;;;;;5053200;28;20040;-87
2021/03/02 05:58:18;;;;;;;10.60;4.97;;;;;;;;;;5029039;28;20477;-87
2021/03/02 06:00:43;;;;;;;13.18;5.93;;;;;;;;;;5050894;28;20036;-87
2021/03/02 06:03:35;;;;;;;12.73;5.20;;;;;;;;;;5049429;28;20484;-87
2021/03/02 06:06:16;;;;;;;;;;;;;;;;;;;;;
2021/03/02 06:09:14;;;;;;;10.95;5.30;;;;;;;;;;5050719;28;20025;-87
2021/03/02 06:11:49;;;;;;;13.82;6.15;;;;;;;;;;5033396;28;20025;-86
2021/03/02 06:14:47;;;;;;;15.57;5.78;;;;;;;;;;5032426;28;20021;-86
2021/03/02 06:20:26;;;;;;;8.68;4.28;;;;;;;;;;5042091;28;20773;-87
2021/03/02 06:22:52;;;;;;;13.45;5.32;;;;;;;;;;5049337;28;20028;-86
2021/03/02 06:25:33;;;;;;;11.40;5.35;;;;;;;;;;5033628;28;20040;-87
2021/03/02 06:28:08;;;;;;;11.23;5.47;;;;;;;;;;5045835;28;20025;-86
2021/03/02 06:30:44;;;;;;;18.45;6.10;;;;;;;;;;5032539;28;20114;-87
2021/03/02 06:33:21;;;;;;;13.80;6.22;;;;;;;;;;5049546;28;20021;-86
2021/03/02 06:35:49;;;;;;;11.90;5.80;;;;;;;;;;5006281;28;20041;-86
2021/03/02 06:41:51;;;;;;;;;;;;;;;;;;;;;
2021/03/02 06:44:32;;;;;;;12.95;5.88;;;;;;;;;;5004425;28;20025;-86
2021/03/02 06:46:58;;;;;;;13.00;6.50;;;;;;;;;;4993377;28;20045;-86
2021/03/02 06:49:37;;;;;;;13.73;6.55;;;;;;;;;;5009462;28;20080;-87
2021/03/02 06:52:10;;;;;;;13.93;6.18;;;;;;;;;;5021872;28;20103;-86
2021/03/02 06:54:59;;;;;;;17.98;7.28;;;;;;;;;;5032993;28;20064;-86
2021/03/02 06:57:50;;;;;;;18.35;7.40;;;;;;;;;;5014528;28;20032;-87
2021/03/02 07:00:29;;;;;;;20.08;7.88;;;;;;;;;;5047768;28;20024;-87
2021/03/02 07:02:54;;;;;;;16.42;6.47;;;;;;;;;;5044688;28;20028;-87
2021/03/02 07:05:20;;;;;;;19.98;6.85;;;;;;;;;;5036455;28;20025;-86
2021/03/02 07:07:47;;;;;;;15.75;7.25;;;;;;;;;;5054387;28;20051;-84
2021/03/02 07:10:19;;;;;;;19.33;7.10;;;;;;;;;;5051958;28;20424;-87
2021/03/02 07:12:45;;;;;;;14.55;6.57;;;;;;;;;;5028294;28;20455;-87
2021/03/02 07:15:17;;;;;;;17.02;7.38;;;;;;;;;;5031533;28;20025;-87
2021/03/02 07:17:49;;;;;;;18.42;6.22;;;;;;;;;;5051582;28;20124;-88
2021/03/02 07:20:18;;;;;;;14.30;6.45;;;;;;;;;;5051473;28;20013;-88
2021/03/02 07:23:13;;;;;;;18.50;6.78;;;;;;;;;;5033365;28;20033;-87
2021/03/02 07:25:40;;;;;;;18.02;6.97;;;;;;;;;;5042747;28;20036;-84
2021/03/02 07:28:06;;;;;;;13.55;6.90;;;;;;;;;;5031720;28;20024;-83
2021/03/02 07:30:31;;;;;;;14.77;6.00;;;;;;;;;;5031392;28;20025;-84
2021/03/02 07:32:56;;;;;;;10.93;5.85;;;;;;;;;;5049057;28;20016;-84
2021/03/02 07:35:23;;;;;;;13.05;5.95;;;;;;;;;;5026842;28;20024;-84
2021/03/02 07:37:48;;;;;;;11.02;6.90;;;;;;;;;;5030316;28;20028;-85
2021/03/02 07:40:15;;;;;;;11.60;6.55;;;;;;;;;;5048165;28;20029;-86
2021/03/02 07:42:40;;;;;;;10.30;5.68;;;;;;;;;;5047163;28;20019;-87
2021/03/02 07:45:05;;;;;;;11.00;5.47;;;;;;;;;;5049779;28;20021;-85
2021/03/02 07:47:44;;;;;;;12.55;7.05;;;;;;;;;;5031412;28;20020;-85
2021/03/02 07:50:18;;;;;;;10.45;6.50;;;;;;;;;;5029186;28;20021;-86
2021/03/02 07:52:44;;;;;;;9.85;6.07;;;;;;;;;;5047219;28;20024;-86
2021/03/02 07:55:17;;;;;;;13.52;5.97;;;;;;;;;;5028144;28;20074;-86
2021/03/02 07:57:42;;;;;;;11.13;6.20;;;;;;;;;;5029053;28;20025;-86
2021/03/02 08:00:13;;;;;;;17.77;6.93;;;;;;;;;;5048516;28;20031;-85
2021/03/02 08:02:39;;;;;;;12.05;5.45;;;;;;;;;;5028583;28;20028;-86
2021/03/02 08:05:23;;;;;;;13.63;7.38;;;;;;;;;;5048213;28;20032;-86
2021/03/02 08:07:48;;;;;;;13.15;7.22;;;;;;;;;;5031779;28;20063;-86
2021/03/02 08:10:32;;;;;;;15.57;6.50;;;;;;;;;;5048725;28;20050;-86
2021/03/02 08:13:17;;;;;;;17.27;7.85;;;;;;;;;;5045590;28;20283;-85
2021/03/02 08:15:42;;;;;;;11.20;6.68;;;;;;;;;;5048739;28;20025;-86
2021/03/02 08:18:27;;;;;;;16.08;6.68;;;;;;;;;;5049530;28;20469;-86
2021/03/02 08:21:07;;;;;;;12.45;7.10;;;;;;;;;;5031480;28;20020;-86
2021/03/02 08:23:52;;;;;;;12.57;7.15;;;;;;;;;;5046520;28;20459;-86
2021/03/02 08:26:29;;;;;;;13.82;6.13;;;;;;;;;;5030349;28;20029;-86
2021/03/02 08:29:07;;;;;;;11.93;6.70;;;;;;;;;;5030285;28;20017;-86
2021/03/02 08:31:36;;;;;;;12.85;6.90;;;;;;;;;;5049290;28;20025;-86
2021/03/02 08:34:02;;;;;;;15.10;7.68;;;;;;;;;;5032452;28;20071;-86
2021/03/02 08:36:31;;;;;;;22.10;6.40;;;;;;;;;;5031520;28;20104;-86
2021/03/02 08:38:59;;;;;;;15.38;7.18;;;;;;;;;;5031850;28;20017;-86
2021/03/02 08:41:36;;;;;;;15.95;7.82;;;;;;;;;;5031935;28;20536;-86
2021/03/02 08:44:02;;;;;;;11.93;6.18;;;;;;;;;;5025795;28;20021;-88
2021/03/02 08:46:31;;;;;;;11.73;5.55;;;;;;;;;;5022866;28;20023;-85
2021/03/02 08:48:57;;;;;;;17.50;7.00;;;;;;;;;;5041622;28;20555;-85
2021/03/02 08:51:34;;;;;;;10.05;4.72;;;;;;;;;;5031337;28;20291;-87
2021/03/02 08:53:59;;;;;;;14.00;7.03;;;;;;;;;;5029553;28;20029;-86
2021/03/02 08:56:27;;;;;;;12.00;7.43;;;;;;;;;;5030638;28;20070;-86
2021/03/02 08:59:02;;;;;;;11.52;6.60;;;;;;;;;;5032504;28;20108;-87
2021/03/02 09:01:34;;;;;;;16.80;7.30;;;;;;;;;;5031743;28;20025;-87
2021/03/02 09:04:37;;;;;;;16.95;7.57;;;;;;;;;;5052668;28;20066;-84
2021/03/02 09:07:03;;;;;;;11.32;6.22;;;;;;;;;;5051876;28;20104;-87
2021/03/02 09:09:29;;;;;;;7.50;4.13;;;;;;;;;;5035421;28;20060;-86
2021/03/02 09:11:56;;;;;;;15.75;6.00;;;;;;;;;;5027696;28;20564;-86
2021/03/02 09:14:22;;;;;;;12.00;5.22;;;;;;;;;;5053178;28;20095;-87
2021/03/02 09:16:51;;;;;;;11.43;5.38;;;;;;;;;;5034187;28;20065;-87
2021/03/02 09:19:35;;;;;;;13.55;4.32;;;;;;;;;;5034749;28;20167;-85
2021/03/02 09:22:05;;;;;;;14.77;5.72;;;;;;;;;;5051980;28;20074;-87
2021/03/02 09:24:31;;;;;;;10.25;4.47;;;;;;;;;;5036115;28;20571;-84
2021/03/02 09:26:58;;;;;;;12.20;5.30;;;;;;;;;;5056637;28;20043;-86
2021/03/02 09:29:25;;;;;;;12.40;6.70;;;;;;;;;;5039289;28;20024;-85
2021/03/02 09:31:51;;;;;;;16.88;5.57;;;;;;;;;;5052634;28;20511;-87
2021/03/02 09:34:16;;;;;;;13.98;6.75;;;;;;;;;;5049256;28;20017;-86
2021/03/02 09:36:42;;;;;;;12.13;5.10;;;;;;;;;;5036113;28;20025;-85
2021/03/02 09:39:21;;;;;;;15.90;5.90;;;;;;;;;;5037296;28;20028;-86
2021/03/02 09:41:46;;;;;;;12.52;5.43;;;;;;;;;;5053612;28;20443;-86
2021/03/02 09:44:16;;;;;;;14.20;7.32;;;;;;;;;;5035406;28;20028;-86
2021/03/02 09:46:41;;;;;;;17.90;8.68;;;;;;;;;;5035625;28;20412;-87
2021/03/02 09:49:06;;;;;;;14.55;6.13;;;;;;;;;;5047465;28;20025;-85
2021/03/02 09:51:32;;;;;;;16.50;6.85;;;;;;;;;;5054052;28;20021;-87
2021/03/02 09:54:10;;;;;;;15.77;6.50;;;;;;;;;;5053061;28;20079;-86
2021/03/02 09:56:35;;;;;;;11.95;3.83;;;;;;;;;;5032766;28;20447;-85
2021/03/02 09:59:00;;;;;;;15.35;7.30;;;;;;;;;;5037951;28;20051;-86
2021/03/02 10:01:26;;;;;;;13.55;7.15;;;;;;;;;;5029694;28;20021;-85
2021/03/02 10:03:51;;;;;;;22.27;7.30;;;;;;;;;;5036004;28;20024;-85
2021/03/02 10:06:25;;;;;;;14.30;7.07;;;;;;;;;;5052796;28;20032;-86
2021/03/02 10:08:50;;;;;;;13.55;7.05;;;;;;;;;;5052246;28;20504;-86
2021/03/02 10:11:19;;;;;;;12.88;4.78;;;;;;;;;;5055237;28;20029;-86
2021/03/02 10:13:45;;;;;;;14.65;7.38;;;;;;;;;;5035536;28;21398;-86
2021/03/02 10:16:16;;;;;;;10.57;5.53;;;;;;;;;;5050908;28;20017;-86
2021/03/02 10:19:11;;;;;;;13.40;7.00;;;;;;;;;;5035868;28;20036;-86
2021/03/02 10:21:50;;;;;;;9.90;4.95;;;;;;;;;;5034201;28;20520;-87
2021/03/02 10:24:20;;;;;;;13.45;5.90;;;;;;;;;;5032811;28;20082;-86
2021/03/02 10:26:57;;;;;;;10.20;4.93;;;;;;;;;;5033757;28;20028;-87
2021/03/02 10:29:26;;;;;;;12.98;4.78;;;;;;;;;;5051312;28;20381;-85
2021/03/02 10:31:54;;;;;;;13.43;5.70;;;;;;;;;;5032623;28;20036;-85
2021/03/02 10:34:20;;;;;;;9.10;3.85;;;;;;;;;;5050750;28;20021;-86
2021/03/02 10:37:07;;;;;;;;;;;;;;;;;;;;;
2021/03/02 10:39:33;;;;;;;24.77;5.50;;;;;;;;;;5055085;28;20033;-86
2021/03/02 10:42:10;;;;;;;16.77;7.13;;;;;;;;;;5035106;28;20051;-86
2021/03/02 10:44:38;;;;;;;17.08;8.38;;;;;;;;;;5040508;28;20036;-86
2021/03/02 10:47:20;;;;;;;18.83;7.85;;;;;;;;;;5033053;28;20063;-86
2021/03/02 10:49:45;;;;;;;13.20;5.25;;;;;;;;;;5031434;28;20028;-84
2021/03/02 10:52:13;;;;;;;11.60;5.25;;;;;;;;;;5031496;28;20028;-85
2021/03/02 10:54:43;;;;;;;15.30;6.90;;;;;;;;;;5054122;28;20025;-87
2021/03/02 10:57:09;;;;;;;;;;;;;;;;;;5034182;28;20024;-86
2021/03/02 10:59:34;;;;;;;11.03;5.80;;;;;;;;;;5051329;28;19920;-85
2021/03/02 11:01:59;;;;;;;12.88;7.10;;;;;;;;;;5050146;28;20282;-84
2021/03/02 11:04:27;;;;;;;15.00;7.57;;;;;;;;;;5046649;28;20025;-85
2021/03/02 11:06:56;;;;;;;9.43;5.32;;;;;;;;;;5035101;28;20063;-86
2021/03/02 11:09:21;;;;;;;18.58;8.23;;;;;;;;;;5053420;28;20032;-85
2021/03/02 11:11:46;;;;;;;15.30;7.18;;;;;;;;;;5025084;28;20029;-86
2021/03/02 11:14:11;;;;;;;24.00;9.05;;;;;;;;;;5054057;28;20092;-85
2021/03/02 11:16:40;;;;;;;19.33;8.23;;;;;;;;;;5028600;28;20060;-85
2021/03/02 11:19:10;;;;;;;17.05;6.60;;;;;;;;;;5051891;28;20012;-86
2021/03/02 11:21:35;;;;;;;;;;;;;;;;;;5053004;28;20032;-87
2021/03/02 11:24:00;;;;;;;15.38;6.03;;;;;;;;;;5053145;28;19909;-85
2021/03/02 11:26:35;;;;;;;10.10;4.25;;;;;;;;;;5030986;28;20029;-86
2021/03/02 11:31:46;;;;;;;11.40;6.03;;;;;;;;;;5052360;28;20037;-85
2021/03/02 11:34:17;;;;;;;20.20;7.55;;;;;;;;;;5035221;28;20047;-84
2021/03/02 11:36:43;;;;;;;6.57;4.15;;;;;;;;;;5034998;28;20033;-85
2021/03/02 11:39:08;;;;;;;12.75;7.35;;;;;;;;;;5031501;28;20152;-83
2021/03/02 11:41:33;;;;;;;16.92;8.57;;;;;;;;;;5034062;28;20029;-84
2021/03/02 11:44:18;;;;;;;18.80;7.67;;;;;;;;;;5046964;28;20025;-85
2021/03/02 11:46:44;;;;;;;14.55;6.47;;;;;;;;;;5049003;28;20812;-85
2021/03/02 11:52:00;;;;;;;14.38;7.57;;;;;;;;;;5031741;28;20047;-85
2021/03/02 11:54:25;;;;;;;18.10;7.63;;;;;;;;;;5031460;28;20013;-85
2021/03/02 11:56:50;;;;;;;22.30;8.57;;;;;;;;;;5050031;28;20059;-85
2021/03/02 11:59:33;;;;;;;16.38;8.95;;;;;;;;;;5048990;28;20092;-85
2021/03/02 12:01:58;;;;;;;14.57;7.13;;;;;;;;;;5028053;28;20044;-85
2021/03/02 12:04:24;;;;;;;16.00;9.05;;;;;;;;;;5048472;28;20461;-83
2021/03/02 12:06:55;;;;;;;14.30;6.47;;;;;;;;;;5049644;28;20575;-85
2021/03/02 12:09:20;;;;;;;8.40;3.38;;;;;;;;;;5030188;28;20372;-85
2021/03/02 12:11:48;;;;;;;17.23;8.50;;;;;;;;;;5030939;28;20025;-85
2021/03/02 12:14:13;;;;;;;18.45;8.60;;;;;;;;;;5044502;28;20093;-83
2021/03/02 12:16:39;;;;;;;19.00;6.90;;;;;;;;;;5035911;28;20052;-83
2021/03/02 12:19:04;;;;;;;18.13;8.85;;;;;;;;;;5049346;28;20028;-85
2021/03/02 12:21:32;;;;;;;15.38;8.38;;;;;;;;;;5049607;28;20025;-85
2021/03/02 12:24:15;;;;;;;16.20;8.05;;;;;;;;;;5025184;28;20381;-85
2021/03/02 12:26:41;;;;;;;19.30;8.75;;;;;;;;;;5046144;28;20096;-86
2021/03/02 12:29:09;;;;;;;23.35;9.02;;;;;;;;;;5029565;28;20017;-84
2021/03/02 12:31:34;;;;;;;17.92;9.73;;;;;;;;;;5030807;28;20025;-84
2021/03/02 12:34:00;;;;;;;19.83;9.13;;;;;;;;;;5031581;28;20016;-85
2021/03/02 12:36:25;;;;;;;19.02;6.25;;;;;;;;;;5051953;28;20501;-85
2021/03/02 12:38:50;;;;;;;19.52;8.10;;;;;;;;;;5032628;28;20017;-85
2021/03/02 12:41:16;;;;;;;11.05;4.35;;;;;;;;;;5042819;28;20041;-85
2021/03/02 12:43:41;;;;;;;17.38;7.90;;;;;;;;;;5048268;28;20025;-85
2021/03/02 12:46:06;;;;;;;18.42;9.25;;;;;;;;;;5031122;28;20031;-85
2021/03/02 12:48:32;;;;;;;20.25;7.50;;;;;;;;;;5048499;28;20028;-84
2021/03/02 12:51:01;;;;;;;19.88;8.65;;;;;;;;;;5030937;28;20029;-85
2021/03/02 12:53:26;;;;;;;23.88;6.85;;;;;;;;;;5030235;28;20020;-85
2021/03/02 12:55:51;;;;;;;14.55;7.63;;;;;;;;;;5023489;28;20024;-85
2021/03/02 12:58:16;;;;;;;21.33;9.10;;;;;;;;;;5027449;28;20052;-85
2021/03/02 13:01:02;;;;;;;20.75;8.38;;;;;;;;;;5046777;28;20021;-85
2021/03/02 13:03:27;;;;;;;16.48;7.65;;;;;;;;;;5030409;28;20064;-86
2021/03/02 13:05:53;;;;;;;20.98;8.27;;;;;;;;;;5050209;28;20341;-85
2021/03/02 13:08:18;;;;;;;29.33;11.55;;;;;;;;;;5047819;28;20021;-85
2021/03/02 13:10:44;;;;;;;25.35;10.05;;;;;;;;;;5042941;28;20025;-85
2021/03/02 13:13:09;;;;;;;14.85;7.13;;;;;;;;;;5047477;28;20021;-85
2021/03/02 13:15:36;;;;;;;18.90;9.10;;;;;;;;;;5045845;28;20107;-85
2021/03/02 13:18:02;;;;;;;20.67;9.45;;;;;;;;;;5030822;28;20094;-85
2021/03/02 13:20:27;;;;;;;20.13;10.40;;;;;;;;;;5026586;28;20508;-84
2021/03/02 13:22:55;;;;;;;24.60;10.95;;;;;;;;;;5043222;28;20025;-85
2021/03/02 13:25:21;;;;;;;21.17;9.95;;;;;;;;;;5048507;28;20092;-85
2021/03/02 13:27:53;;;;;;;18.75;9.30;;;;;;;;;;5028793;28;20192;-86
2021/03/02 13:30:25;;;;;;;20.77;8.10;;;;;;;;;;5030131;28;20025;-86
2021/03/02 13:33:00;;;;;;;20.33;10.63;;;;;;;;;;5029255;28;20032;-85
2021/03/02 13:35:26;;;;;;;20.73;9.38;;;;;;;;;;5045738;28;20024;-85
2021/03/02 13:37:52;;;;;;;14.13;6.60;;;;;;;;;;5044678;28;20017;-86
2021/03/02 13:40:19;;;;;;;25.65;10.00;;;;;;;;;;5029343;28;20017;-86
2021/03/02 13:42:47;;;;;;;20.25;7.45;;;;;;;;;;5046720;28;20107;-86
2021/03/02 13:45:13;;;;;;;20.83;8.80;;;;;;;;;;5030300;28;20472;-86
2021/03/02 13:47:41;;;;;;;23.13;10.13;;;;;;;;;;5031685;28;20083;-85
2021/03/02 13:50:07;;;;;;;20.77;9.98;;;;;;;;;;5034994;28;20032;-85
2021/03/02 13:52:33;;;;;;;20.30;10.98;;;;;;;;;;5051385;28;20025;-86
2021/03/02 13:55:03;;;;;;;22.08;9.00;;;;;;;;;;5053339;28;20017;-86
2021/03/02 13:57:29;;;;;;;15.32;7.20;;;;;;;;;;5036497;28;20013;-84
2021/03/02 13:59:58;;;;;;;27.42;12.38;;;;;;;;;;5052568;28;20464;-86
2021/03/02 14:02:24;;;;;;;21.13;9.48;;;;;;;;;;5050361;28;20036;-85
2021/03/02 14:04:49;;;;;;;25.60;9.20;;;;;;;;;;5033169;28;20029;-86
2021/03/02 14:07:16;;;;;;;17.48;7.80;;;;;;;;;;5059200;28;20031;-85
2021/03/02 14:09:42;;;;;;;15.57;5.85;;;;;;;;;;5032614;28;20028;-85
2021/03/02 14:12:07;;;;;;;14.68;6.60;;;;;;;;;;5049220;28;20397;-87
2021/03/02 14:14:33;;;;;;;17.00;8.27;;;;;;;;;;5031428;28;20082;-85
2021/03/02 14:16:59;;;;;;;20.65;8.13;;;;;;;;;;5033209;28;20013;-85
2021/03/02 14:19:25;;;;;;;26.23;8.00;;;;;;;;;;5065796;23;20260;-64
2021/03/02 14:21:50;;;;;;;18.45;9.07;;;;;;;;;;5067563;28;20103;-64
2021/03/02 14:24:15;;;;;;;25.08;9.32;;;;;;;;;;5071315;28;20104;-65
2021/03/02 14:26:41;;;;;;;26.63;9.18;;;;;;;;;;5071935;28;20024;-64
2021/03/02 14:29:07;;;;;;;20.67;9.73;;;;;;;;;;5072345;28;20070;-64
2021/03/02 14:31:32;;;;;;;24.92;9.60;;;;;;;;;;5071830;28;20024;-64
2021/03/02 14:33:57;;;;;;;17.42;8.82;;;;;;;;;;5069796;28;20052;-65
2021/03/02 14:36:23;;;;;;;22.33;10.13;;;;;;;;;;5066687;28;20028;-66
2021/03/02 14:38:49;;;;;;;21.55;8.30;;;;;;;;;;5067025;28;20108;-64
2021/03/02 14:41:18;;;;;;;24.95;8.98;;;;;;;;;;5068889;28;20032;-63
2021/03/02 14:43:43;;;;;;;19.80;9.07;;;;;;;;;;5062223;28;20024;-63
2021/03/02 14:46:10;;;;;;;25.35;10.05;;;;;;;;;;5064251;28;20077;-64
2021/03/02 14:48:42;;;;;;;17.60;6.47;;;;;;;;;;5068568;28;20024;-64
2021/03/02 14:51:08;;;;;;;29.80;9.20;;;;;;;;;;5069479;28;20024;-63
2021/03/02 14:53:35;;;;;;;23.73;8.43;;;;;;;;;;5067843;28;20024;-67
2021/03/02 14:56:04;;;;;;;21.70;8.88;;;;;;;;;;5066158;28;20075;-64
2021/03/02 14:58:31;;;;;;;15.57;6.45;;;;;;;;;;5068255;28;20444;-64